Westbrook, Connecticut
Current Conditions -  °F | °C
As of 5:35 AM on Thursday 18 Dec 2014 (Local Time) from KSNC Reporting Station
Unknown Precip Unknown Precip  
Wind Chill: 31°   Ceiling: Unl
Heat Index: 37°   Visibility: 10mi
Dew Point: 30°   Wind: 8mph
Humidity: 75%   Direction: 300°WNW
Pressure: 29.83"   Gusts: 23mph
Location:  41.29°N, 72.45°W
Report Text: KSNC 181035Z AUTO 30007G20KT 10SM UP FEW047 SCT075 03/M01 A2983 RMK AO2
Loading
Personal Weather Stations






























Interactive Weather Map New forecast layout! Learn more

10-Day Weather Forecast

Advertisements
Track Severe Weather on mobile